sensor_id;sensor_type;location;lat;lon;timestamp;P1;durP1;ratioP1;P2;durP2;ratioP2
71290;SDS011;59073;51.994;4.448;2023-02-26T00:00:08;1.90;;;1.65;;
71290;SDS011;59073;51.994;4.448;2023-02-26T00:02:48;2.11;;;1.81;;
71290;SDS011;59073;51.994;4.448;2023-02-26T00:05:21;2.00;;;1.68;;
71290;SDS011;59073;51.994;4.448;2023-02-26T00:07:55;2.01;;;1.69;;
71290;SDS011;59073;51.994;4.448;2023-02-26T00:10:23;1.94;;;1.64;;
71290;SDS011;59073;51.994;4.448;2023-02-26T00:12:56;1.69;;;1.44;;
71290;SDS011;59073;51.994;4.448;2023-02-26T00:15:34;1.79;;;1.56;;
71290;SDS011;59073;51.994;4.448;2023-02-26T00:18:23;1.75;;;1.52;;
71290;SDS011;59073;51.994;4.448;2023-02-26T00:21:28;1.97;;;1.72;;
71290;SDS011;59073;51.994;4.448;2023-02-26T00:24:29;1.64;;;1.45;;
71290;SDS011;59073;51.994;4.448;2023-02-26T00:27:18;1.75;;;1.53;;
71290;SDS011;59073;51.994;4.448;2023-02-26T00:29:59;1.50;;;1.29;;
71290;SDS011;59073;51.994;4.448;2023-02-26T00:32:43;1.74;;;1.47;;
71290;SDS011;59073;51.994;4.448;2023-02-26T00:35:26;1.69;;;1.42;;
71290;SDS011;59073;51.994;4.448;2023-02-26T00:40:37;1.40;;;1.15;;
71290;SDS011;59073;51.994;4.448;2023-02-26T00:43:16;1.76;;;1.45;;
71290;SDS011;59073;51.994;4.448;2023-02-26T00:46:02;2.04;;;1.63;;
71290;SDS011;59073;51.994;4.448;2023-02-26T00:51:18;1.30;;;1.05;;
71290;SDS011;59073;51.994;4.448;2023-02-26T00:56:44;1.37;;;1.07;;
71290;SDS011;59073;51.994;4.448;2023-02-26T00:59:10;1.86;;;1.45;;
71290;SDS011;59073;51.994;4.448;2023-02-26T01:01:53;1.74;;;1.36;;
71290;SDS011;59073;51.994;4.448;2023-02-26T01:04:27;1.34;;;1.06;;
71290;SDS011;59073;51.994;4.448;2023-02-26T01:06:58;1.33;;;1.06;;
71290;SDS011;59073;51.994;4.448;2023-02-26T01:09:52;1.76;;;1.39;;
71290;SDS011;59073;51.994;4.448;2023-02-26T01:12:30;1.15;;;0.92;;
71290;SDS011;59073;51.994;4.448;2023-02-26T01:14:58;1.51;;;1.23;;
71290;SDS011;59073;51.994;4.448;2023-02-26T01:17:33;1.62;;;1.34;;
71290;SDS011;59073;51.994;4.448;2023-02-26T01:23:00;1.64;;;1.33;;
71290;SDS011;59073;51.994;4.448;2023-02-26T01:28:26;1.56;;;1.25;;
71290;SDS011;59073;51.994;4.448;2023-02-26T01:31:31;1.68;;;1.36;;
71290;SDS011;59073;51.994;4.448;2023-02-26T01:34:34;1.45;;;1.19;;
71290;SDS011;59073;51.994;4.448;2023-02-26T01:38:01;1.91;;;1.54;;
71290;SDS011;59073;51.994;4.448;2023-02-26T01:50:08;1.67;;;1.39;;
71290;SDS011;59073;51.994;4.448;2023-02-26T01:55:14;1.35;;;1.13;;
71290;SDS011;59073;51.994;4.448;2023-02-26T01:57:51;1.38;;;1.17;;
71290;SDS011;59073;51.994;4.448;2023-02-26T02:00:40;1.54;;;1.31;;
71290;SDS011;59073;51.994;4.448;2023-02-26T02:03:11;1.58;;;1.32;;
71290;SDS011;59073;51.994;4.448;2023-02-26T02:05:46;1.53;;;1.26;;
71290;SDS011;59073;51.994;4.448;2023-02-26T02:08:16;2.19;;;1.78;;
71290;SDS011;59073;51.994;4.448;2023-02-26T02:11:11;1.75;;;1.43;;
71290;SDS011;59073;51.994;4.448;2023-02-26T02:22:45;1.85;;;1.51;;
71290;SDS011;59073;51.994;4.448;2023-02-26T02:25:31;1.45;;;1.20;;
71290;SDS011;59073;51.994;4.448;2023-02-26T02:30:59;1.59;;;1.33;;
71290;SDS011;59073;51.994;4.448;2023-02-26T02:33:33;1.97;;;1.65;;
71290;SDS011;59073;51.994;4.448;2023-02-26T02:36:19;2.37;;;1.97;;
71290;SDS011;59073;51.994;4.448;2023-02-26T02:39:01;1.98;;;1.70;;
71290;SDS011;59073;51.994;4.448;2023-02-26T02:41:38;2.12;;;1.82;;
71290;SDS011;59073;51.994;4.448;2023-02-26T02:44:28;1.86;;;1.62;;
71290;SDS011;59073;51.994;4.448;2023-02-26T02:47:14;2.09;;;1.83;;
71290;SDS011;59073;51.994;4.448;2023-02-26T02:52:57;2.04;;;1.81;;
71290;SDS011;59073;51.994;4.448;2023-02-26T02:55:37;2.62;;;2.36;;
71290;SDS011;59073;51.994;4.448;2023-02-26T03:01:33;1.73;;;1.56;;
71290;SDS011;59073;51.994;4.448;2023-02-26T03:04:19;1.24;;;1.10;;
71290;SDS011;59073;51.994;4.448;2023-02-26T03:07:01;1.66;;;1.46;;
71290;SDS011;59073;51.994;4.448;2023-02-26T03:09:43;1.79;;;1.51;;
71290;SDS011;59073;51.994;4.448;2023-02-26T03:12:29;1.48;;;1.22;;
71290;SDS011;59073;51.994;4.448;2023-02-26T03:15:01;1.93;;;1.55;;
71290;SDS011;59073;51.994;4.448;2023-02-26T03:17:47;1.85;;;1.46;;
71290;SDS011;59073;51.994;4.448;2023-02-26T03:23:33;1.69;;;1.28;;
71290;SDS011;59073;51.994;4.448;2023-02-26T03:32:32;1.99;;;1.49;;
71290;SDS011;59073;51.994;4.448;2023-02-26T03:38:24;1.98;;;1.47;;
71290;SDS011;59073;51.994;4.448;2023-02-26T03:41:05;1.70;;;1.26;;
71290;SDS011;59073;51.994;4.448;2023-02-26T03:46:33;1.89;;;1.39;;
71290;SDS011;59073;51.994;4.448;2023-02-26T03:49:45;1.78;;;1.32;;
71290;SDS011;59073;51.994;4.448;2023-02-26T03:52:31;1.70;;;1.26;;
71290;SDS011;59073;51.994;4.448;2023-02-26T03:57:50;1.96;;;1.45;;
71290;SDS011;59073;51.994;4.448;2023-02-26T04:00:43;1.51;;;1.10;;
71290;SDS011;59073;51.994;4.448;2023-02-26T04:04:09;2.24;;;1.57;;
71290;SDS011;59073;51.994;4.448;2023-02-26T04:06:38;2.10;;;1.43;;
71290;SDS011;59073;51.994;4.448;2023-02-26T04:09:17;1.76;;;1.23;;
71290;SDS011;59073;51.994;4.448;2023-02-26T04:12:27;2.44;;;1.72;;
71290;SDS011;59073;51.994;4.448;2023-02-26T04:15:04;2.13;;;1.49;;
71290;SDS011;59073;51.994;4.448;2023-02-26T04:17:39;2.50;;;1.73;;
71290;SDS011;59073;51.994;4.448;2023-02-26T04:20:27;1.61;;;1.14;;
71290;SDS011;59073;51.994;4.448;2023-02-26T04:23:05;1.60;;;1.14;;
71290;SDS011;59073;51.994;4.448;2023-02-26T04:25:41;2.19;;;1.55;;
71290;SDS011;59073;51.994;4.448;2023-02-26T04:28:09;2.17;;;1.49;;
71290;SDS011;59073;51.994;4.448;2023-02-26T04:30:48;2.43;;;1.66;;
71290;SDS011;59073;51.994;4.448;2023-02-26T04:34:40;1.61;;;1.11;;
71290;SDS011;59073;51.994;4.448;2023-02-26T04:36:57;2.06;;;1.40;;
71290;SDS011;59073;51.994;4.448;2023-02-26T04:39:38;2.20;;;1.51;;
71290;SDS011;59073;51.994;4.448;2023-02-26T04:42:24;1.75;;;1.21;;
71290;SDS011;59073;51.994;4.448;2023-02-26T04:45:12;1.86;;;1.30;;
71290;SDS011;59073;51.994;4.448;2023-02-26T04:47:46;1.67;;;1.18;;
71290;SDS011;59073;51.994;4.448;2023-02-26T04:50:25;2.19;;;1.53;;
71290;SDS011;59073;51.994;4.448;2023-02-26T04:53:16;1.68;;;1.16;;
71290;SDS011;59073;51.994;4.448;2023-02-26T04:56:03;2.38;;;1.64;;
71290;SDS011;59073;51.994;4.448;2023-02-26T04:59:06;2.22;;;1.53;;
71290;SDS011;59073;51.994;4.448;2023-02-26T05:07:51;2.13;;;1.50;;
71290;SDS011;59073;51.994;4.448;2023-02-26T05:10:19;1.84;;;1.30;;
71290;SDS011;59073;51.994;4.448;2023-02-26T05:12:50;2.33;;;1.65;;
71290;SDS011;59073;51.994;4.448;2023-02-26T06:38:08;1.81;;;1.38;;
71290;SDS011;59073;51.994;4.448;2023-02-26T06:40:37;1.97;;;1.52;;
71290;SDS011;59073;51.994;4.448;2023-02-26T06:53:35;1.57;;;1.30;;
71290;SDS011;59073;51.994;4.448;2023-02-26T06:56:18;1.63;;;1.35;;
71290;SDS011;59073;51.994;4.448;2023-02-26T08:12:06;1.22;;;1.02;;
71290;SDS011;59073;51.994;4.448;2023-02-26T08:14:32;1.23;;;1.03;;
71290;SDS011;59073;51.994;4.448;2023-02-26T08:16:57;1.17;;;0.98;;
71290;SDS011;59073;51.994;4.448;2023-02-26T08:19:23;1.15;;;0.95;;
71290;SDS011;59073;51.994;4.448;2023-02-26T08:21:52;1.09;;;0.89;;
71290;SDS011;59073;51.994;4.448;2023-02-26T08:24:19;1.08;;;0.86;;
71290;SDS011;59073;51.994;4.448;2023-02-26T08:26:45;1.27;;;1.00;;
71290;SDS011;59073;51.994;4.448;2023-02-26T08:29:11;1.36;;;1.07;;
71290;SDS011;59073;51.994;4.448;2023-02-26T08:31:36;1.08;;;0.85;;
71290;SDS011;59073;51.994;4.448;2023-02-26T08:34:01;1.35;;;1.05;;
71290;SDS011;59073;51.994;4.448;2023-02-26T08:36:31;1.05;;;0.82;;
71290;SDS011;59073;51.994;4.448;2023-02-26T08:38:56;1.42;;;1.10;;
71290;SDS011;59073;51.994;4.448;2023-02-26T08:41:22;1.29;;;0.99;;
71290;SDS011;59073;51.994;4.448;2023-02-26T08:43:51;1.49;;;1.15;;
71290;SDS011;59073;51.994;4.448;2023-02-26T08:46:17;1.50;;;1.16;;
71290;SDS011;59073;51.994;4.448;2023-02-26T08:48:42;1.22;;;0.95;;
71290;SDS011;59073;51.994;4.448;2023-02-26T08:51:08;1.14;;;0.87;;
71290;SDS011;59073;51.994;4.448;2023-02-26T08:53:36;1.34;;;1.04;;
71290;SDS011;59073;51.994;4.448;2023-02-26T08:56:04;1.21;;;0.94;;
71290;SDS011;59073;51.994;4.448;2023-02-26T08:58:29;1.13;;;0.88;;
71290;SDS011;59073;51.994;4.448;2023-02-26T09:00:55;0.94;;;0.73;;
71290;SDS011;59073;51.994;4.448;2023-02-26T09:03:25;0.84;;;0.66;;
71290;SDS011;59073;51.994;4.448;2023-02-26T09:05:53;1.22;;;0.96;;
71290;SDS011;59073;51.994;4.448;2023-02-26T09:08:19;1.03;;;0.81;;
71290;SDS011;59073;51.994;4.448;2023-02-26T09:10:45;1.28;;;1.00;;
71290;SDS011;59073;51.994;4.448;2023-02-26T09:13:11;1.06;;;0.83;;
71290;SDS011;59073;51.994;4.448;2023-02-26T09:15:36;1.11;;;0.88;;
71290;SDS011;59073;51.994;4.448;2023-02-26T09:18:02;0.79;;;0.62;;
71290;SDS011;59073;51.994;4.448;2023-02-26T09:20:28;0.77;;;0.60;;
71290;SDS011;59073;51.994;4.448;2023-02-26T09:23:01;0.97;;;0.76;;
71290;SDS011;59073;51.994;4.448;2023-02-26T09:25:26;0.90;;;0.70;;
71290;SDS011;59073;51.994;4.448;2023-02-26T09:27:54;0.97;;;0.75;;
71290;SDS011;59073;51.994;4.448;2023-02-26T09:30:20;0.78;;;0.60;;
71290;SDS011;59073;51.994;4.448;2023-02-26T09:32:45;1.02;;;0.79;;
71290;SDS011;59073;51.994;4.448;2023-02-26T09:35:10;0.84;;;0.66;;
71290;SDS011;59073;51.994;4.448;2023-02-26T09:37:36;0.58;;;0.45;;
71290;SDS011;59073;51.994;4.448;2023-02-26T09:40:01;0.76;;;0.59;;
71290;SDS011;59073;51.994;4.448;2023-02-26T09:42:44;0.71;;;0.54;;
71290;SDS011;59073;51.994;4.448;2023-02-26T09:45:31;0.89;;;0.68;;
71290;SDS011;59073;51.994;4.448;2023-02-26T09:48:03;1.21;;;0.91;;
71290;SDS011;59073;51.994;4.448;2023-02-26T09:50:38;1.12;;;0.85;;
71290;SDS011;59073;51.994;4.448;2023-02-26T09:53:13;0.90;;;0.69;;
71290;SDS011;59073;51.994;4.448;2023-02-26T09:55:57;1.18;;;0.89;;
71290;SDS011;59073;51.994;4.448;2023-02-26T09:58:30;0.74;;;0.56;;
71290;SDS011;59073;51.994;4.448;2023-02-26T10:06:28;0.76;;;0.57;;
71290;SDS011;59073;51.994;4.448;2023-02-26T10:08:58;0.84;;;0.64;;
71290;SDS011;59073;51.994;4.448;2023-02-26T10:21:06;0.91;;;0.68;;
71290;SDS011;59073;51.994;4.448;2023-02-26T10:23:45;1.08;;;0.81;;
71290;SDS011;59073;51.994;4.448;2023-02-26T10:42:16;0.92;;;0.67;;
71290;SDS011;59073;51.994;4.448;2023-02-26T10:44:50;1.08;;;0.78;;
71290;SDS011;59073;51.994;4.448;2023-02-26T10:50:15;0.88;;;0.64;;
71290;SDS011;59073;51.994;4.448;2023-02-26T10:52:44;1.17;;;0.84;;
71290;SDS011;59073;51.994;4.448;2023-02-26T10:58:22;0.85;;;0.62;;
71290;SDS011;59073;51.994;4.448;2023-02-26T11:00:51;1.13;;;0.81;;
71290;SDS011;59073;51.994;4.448;2023-02-26T11:05:50;1.03;;;0.75;;
71290;SDS011;59073;51.994;4.448;2023-02-26T11:08:41;0.84;;;0.61;;
71290;SDS011;59073;51.994;4.448;2023-02-26T11:11:09;1.37;;;1.00;;
71290;SDS011;59073;51.994;4.448;2023-02-26T11:17:37;1.30;;;0.94;;
71290;SDS011;59073;51.994;4.448;2023-02-26T11:20:23;1.16;;;0.82;;
71290;SDS011;59073;51.994;4.448;2023-02-26T11:23:05;1.16;;;0.83;;
71290;SDS011;59073;51.994;4.448;2023-02-26T11:25:40;0.95;;;0.69;;
71290;SDS011;59073;51.994;4.448;2023-02-26T11:28:18;0.58;;;0.42;;
71290;SDS011;59073;51.994;4.448;2023-02-26T11:30:47;0.83;;;0.61;;
71290;SDS011;59073;51.994;4.448;2023-02-26T11:33:21;0.87;;;0.63;;
71290;SDS011;59073;51.994;4.448;2023-02-26T11:35:51;0.99;;;0.73;;
71290;SDS011;59073;51.994;4.448;2023-02-26T11:38:20;1.03;;;0.76;;
71290;SDS011;59073;51.994;4.448;2023-02-26T11:40:48;0.86;;;0.64;;
71290;SDS011;59073;51.994;4.448;2023-02-26T11:43:20;0.83;;;0.61;;
71290;SDS011;59073;51.994;4.448;2023-02-26T11:45:57;1.24;;;0.91;;
71290;SDS011;59073;51.994;4.448;2023-02-26T11:48:34;1.14;;;0.83;;
71290;SDS011;59073;51.994;4.448;2023-02-26T11:51:10;0.86;;;0.64;;
71290;SDS011;59073;51.994;4.448;2023-02-26T11:56:40;0.74;;;0.56;;
71290;SDS011;59073;51.994;4.448;2023-02-26T11:59:12;0.99;;;0.74;;
71290;SDS011;59073;51.994;4.448;2023-02-26T12:01:43;1.05;;;0.79;;
71290;SDS011;59073;51.994;4.448;2023-02-26T12:04:10;1.28;;;0.96;;
71290;SDS011;59073;51.994;4.448;2023-02-26T12:06:37;0.91;;;0.68;;
71290;SDS011;59073;51.994;4.448;2023-02-26T12:09:04;1.26;;;0.93;;
71290;SDS011;59073;51.994;4.448;2023-02-26T12:14:24;0.83;;;0.63;;
71290;SDS011;59073;51.994;4.448;2023-02-26T12:17:17;0.83;;;0.63;;
71290;SDS011;59073;51.994;4.448;2023-02-26T12:20:06;1.18;;;0.90;;
71290;SDS011;59073;51.994;4.448;2023-02-26T12:28:41;0.84;;;0.63;;
71290;SDS011;59073;51.994;4.448;2023-02-26T12:31:45;0.91;;;0.68;;
71290;SDS011;59073;51.994;4.448;2023-02-26T12:34:30;0.85;;;0.63;;
71290;SDS011;59073;51.994;4.448;2023-02-26T12:42:38;1.17;;;0.86;;
71290;SDS011;59073;51.994;4.448;2023-02-26T12:53:39;0.90;;;0.64;;
71290;SDS011;59073;51.994;4.448;2023-02-26T12:57:12;1.19;;;0.85;;
71290;SDS011;59073;51.994;4.448;2023-02-26T13:20:36;0.85;;;0.66;;
71290;SDS011;59073;51.994;4.448;2023-02-26T13:23:13;1.14;;;0.89;;
71290;SDS011;59073;51.994;4.448;2023-02-26T13:25:50;1.06;;;0.83;;
71290;SDS011;59073;51.994;4.448;2023-02-26T13:28:41;0.98;;;0.78;;
71290;SDS011;59073;51.994;4.448;2023-02-26T13:33:55;0.86;;;0.68;;
71290;SDS011;59073;51.994;4.448;2023-02-26T13:36:26;1.07;;;0.83;;
71290;SDS011;59073;51.994;4.448;2023-02-26T13:44:54;0.98;;;0.76;;
71290;SDS011;59073;51.994;4.448;2023-02-26T13:52:55;1.02;;;0.79;;
71290;SDS011;59073;51.994;4.448;2023-02-26T13:55:36;1.27;;;0.97;;
71290;SDS011;59073;51.994;4.448;2023-02-26T14:06:34;1.25;;;0.97;;
71290;SDS011;59073;51.994;4.448;2023-02-26T14:08:55;1.33;;;1.02;;
71290;SDS011;59073;51.994;4.448;2023-02-26T14:11:44;0.91;;;0.70;;
71290;SDS011;59073;51.994;4.448;2023-02-26T14:14:32;1.01;;;0.79;;
71290;SDS011;59073;51.994;4.448;2023-02-26T14:27:47;0.91;;;0.72;;
71290;SDS011;59073;51.994;4.448;2023-02-26T14:30:38;1.11;;;0.87;;
71290;SDS011;59073;51.994;4.448;2023-02-26T14:33:26;1.39;;;1.08;;
71290;SDS011;59073;51.994;4.448;2023-02-26T14:36:03;1.22;;;0.94;;
71290;SDS011;59073;51.994;4.448;2023-02-26T14:38:41;1.19;;;0.92;;
71290;SDS011;59073;51.994;4.448;2023-02-26T14:44:10;0.82;;;0.65;;
71290;SDS011;59073;51.994;4.448;2023-02-26T14:46:42;1.28;;;1.01;;
71290;SDS011;59073;51.994;4.448;2023-02-26T14:49:13;1.05;;;0.83;;
71290;SDS011;59073;51.994;4.448;2023-02-26T14:52:04;0.83;;;0.65;;
71290;SDS011;59073;51.994;4.448;2023-02-26T14:54:42;1.03;;;0.80;;
71290;SDS011;59073;51.994;4.448;2023-02-26T15:00:05;0.65;;;0.51;;
71290;SDS011;59073;51.994;4.448;2023-02-26T15:20:51;0.94;;;0.71;;
71290;SDS011;59073;51.994;4.448;2023-02-26T15:26:21;0.90;;;0.68;;
71290;SDS011;59073;51.994;4.448;2023-02-26T15:29:02;0.82;;;0.62;;
71290;SDS011;59073;51.994;4.448;2023-02-26T15:34:25;0.88;;;0.66;;
71290;SDS011;59073;51.994;4.448;2023-02-26T15:39:59;0.99;;;0.74;;
71290;SDS011;59073;51.994;4.448;2023-02-26T15:42:38;0.79;;;0.60;;
71290;SDS011;59073;51.994;4.448;2023-02-26T15:45:15;0.92;;;0.68;;
71290;SDS011;59073;51.994;4.448;2023-02-26T15:48:38;0.94;;;0.70;;
71290;SDS011;59073;51.994;4.448;2023-02-26T15:51:10;1.39;;;1.04;;
71290;SDS011;59073;51.994;4.448;2023-02-26T15:53:43;1.01;;;0.75;;
71290;SDS011;59073;51.994;4.448;2023-02-26T15:56:25;0.79;;;0.58;;
71290;SDS011;59073;51.994;4.448;2023-02-26T15:59:27;1.14;;;0.84;;
71290;SDS011;59073;51.994;4.448;2023-02-26T16:01:56;1.06;;;0.78;;
71290;SDS011;59073;51.994;4.448;2023-02-26T16:04:22;1.30;;;0.96;;
71290;SDS011;59073;51.994;4.448;2023-02-26T16:10:02;1.28;;;0.93;;
71290;SDS011;59073;51.994;4.448;2023-02-26T16:12:39;1.01;;;0.72;;
71290;SDS011;59073;51.994;4.448;2023-02-26T16:15:20;1.08;;;0.77;;
71290;SDS011;59073;51.994;4.448;2023-02-26T16:18:11;1.10;;;0.80;;
71290;SDS011;59073;51.994;4.448;2023-02-26T16:20:45;1.65;;;1.23;;
71290;SDS011;59073;51.994;4.448;2023-02-26T16:23:15;1.29;;;0.98;;
71290;SDS011;59073;51.994;4.448;2023-02-26T16:30:52;1.38;;;1.04;;
71290;SDS011;59073;51.994;4.448;2023-02-26T16:33:22;1.42;;;1.06;;
71290;SDS011;59073;51.994;4.448;2023-02-26T16:35:54;1.50;;;1.12;;
71290;SDS011;59073;51.994;4.448;2023-02-26T16:38:47;1.59;;;1.20;;
71290;SDS011;59073;51.994;4.448;2023-02-26T16:41:15;1.64;;;1.25;;
71290;SDS011;59073;51.994;4.448;2023-02-26T16:43:49;1.62;;;1.23;;
71290;SDS011;59073;51.994;4.448;2023-02-26T16:48:59;1.18;;;0.90;;
71290;SDS011;59073;51.994;4.448;2023-02-26T16:51:29;1.55;;;1.17;;
71290;SDS011;59073;51.994;4.448;2023-02-26T16:53:59;1.40;;;1.04;;
71290;SDS011;59073;51.994;4.448;2023-02-26T16:56:39;1.62;;;1.22;;
71290;SDS011;59073;51.994;4.448;2023-02-26T16:59:13;1.51;;;1.14;;
71290;SDS011;59073;51.994;4.448;2023-02-26T17:01:49;1.44;;;1.10;;
71290;SDS011;59073;51.994;4.448;2023-02-26T17:04:18;1.27;;;0.97;;
71290;SDS011;59073;51.994;4.448;2023-02-26T17:06:48;1.69;;;1.31;;
71290;SDS011;59073;51.994;4.448;2023-02-26T17:12:04;1.41;;;1.09;;
71290;SDS011;59073;51.994;4.448;2023-02-26T17:14:40;1.56;;;1.20;;
71290;SDS011;59073;51.994;4.448;2023-02-26T17:17:12;1.71;;;1.34;;
71290;SDS011;59073;51.994;4.448;2023-02-26T17:19:37;1.73;;;1.38;;
71290;SDS011;59073;51.994;4.448;2023-02-26T17:22:03;1.17;;;0.95;;
71290;SDS011;59073;51.994;4.448;2023-02-26T17:24:35;1.41;;;1.16;;
71290;SDS011;59073;51.994;4.448;2023-02-26T17:27:20;1.26;;;1.02;;
71290;SDS011;59073;51.994;4.448;2023-02-26T17:29:53;1.35;;;1.08;;
71290;SDS011;59073;51.994;4.448;2023-02-26T17:32:20;1.28;;;1.03;;
71290;SDS011;59073;51.994;4.448;2023-02-26T17:34:48;1.41;;;1.13;;
71290;SDS011;59073;51.994;4.448;2023-02-26T17:39:55;1.21;;;0.98;;
71290;SDS011;59073;51.994;4.448;2023-02-26T17:42:26;1.26;;;1.01;;
71290;SDS011;59073;51.994;4.448;2023-02-26T17:45:27;1.43;;;1.11;;
71290;SDS011;59073;51.994;4.448;2023-02-26T17:47:59;1.43;;;1.12;;
71290;SDS011;59073;51.994;4.448;2023-02-26T17:53:24;3.01;;;2.43;;
71290;SDS011;59073;51.994;4.448;2023-02-26T17:56:00;1.68;;;1.41;;
71290;SDS011;59073;51.994;4.448;2023-02-26T17:58:29;1.65;;;1.40;;
71290;SDS011;59073;51.994;4.448;2023-02-26T18:01:00;1.82;;;1.58;;
71290;SDS011;59073;51.994;4.448;2023-02-26T18:03:28;1.84;;;1.60;;
71290;SDS011;59073;51.994;4.448;2023-02-26T18:06:18;2.15;;;1.89;;
71290;SDS011;59073;51.994;4.448;2023-02-26T18:16:28;1.52;;;1.40;;
71290;SDS011;59073;51.994;4.448;2023-02-26T18:19:10;1.98;;;1.82;;
71290;SDS011;59073;51.994;4.448;2023-02-26T18:21:40;2.07;;;1.87;;
71290;SDS011;59073;51.994;4.448;2023-02-26T18:24:38;1.99;;;1.78;;
71290;SDS011;59073;51.994;4.448;2023-02-26T18:27:20;1.67;;;1.52;;
71290;SDS011;59073;51.994;4.448;2023-02-26T18:29:48;1.82;;;1.69;;
71290;SDS011;59073;51.994;4.448;2023-02-26T18:32:33;1.74;;;1.58;;
71290;SDS011;59073;51.994;4.448;2023-02-26T18:35:16;1.70;;;1.53;;
71290;SDS011;59073;51.994;4.448;2023-02-26T18:37:42;1.58;;;1.45;;
71290;SDS011;59073;51.994;4.448;2023-02-26T18:40:19;1.87;;;1.73;;
71290;SDS011;59073;51.994;4.448;2023-02-26T18:42:55;1.58;;;1.47;;
71290;SDS011;59073;51.994;4.448;2023-02-26T18:45:32;1.51;;;1.41;;
71290;SDS011;59073;51.994;4.448;2023-02-26T18:47:57;1.59;;;1.48;;
71290;SDS011;59073;51.994;4.448;2023-02-26T18:50:25;1.54;;;1.40;;
71290;SDS011;59073;51.994;4.448;2023-02-26T18:52:57;1.59;;;1.45;;
71290;SDS011;59073;51.994;4.448;2023-02-26T18:55:22;1.78;;;1.58;;
71290;SDS011;59073;51.994;4.448;2023-02-26T18:57:54;1.93;;;1.69;;
71290;SDS011;59073;51.994;4.448;2023-02-26T19:00:25;1.43;;;1.29;;
71290;SDS011;59073;51.994;4.448;2023-02-26T19:02:52;1.74;;;1.57;;
71290;SDS011;59073;51.994;4.448;2023-02-26T19:05:19;1.81;;;1.62;;
71290;SDS011;59073;51.994;4.448;2023-02-26T19:07:48;1.73;;;1.55;;
71290;SDS011;59073;51.994;4.448;2023-02-26T19:10:23;1.72;;;1.55;;
71290;SDS011;59073;51.994;4.448;2023-02-26T19:12:53;1.80;;;1.64;;
71290;SDS011;59073;51.994;4.448;2023-02-26T19:18:30;1.86;;;1.72;;
71290;SDS011;59073;51.994;4.448;2023-02-26T19:20:56;1.88;;;1.73;;
71290;SDS011;59073;51.994;4.448;2023-02-26T19:23:24;2.03;;;1.86;;
71290;SDS011;59073;51.994;4.448;2023-02-26T19:25:50;2.02;;;1.84;;
71290;SDS011;59073;51.994;4.448;2023-02-26T19:28:16;1.87;;;1.72;;
71290;SDS011;59073;51.994;4.448;2023-02-26T19:30:42;2.05;;;1.89;;
71290;SDS011;59073;51.994;4.448;2023-02-26T19:33:10;1.82;;;1.68;;
71290;SDS011;59073;51.994;4.448;2023-02-26T19:35:43;1.74;;;1.61;;
71290;SDS011;59073;51.994;4.448;2023-02-26T19:38:16;1.84;;;1.70;;
71290;SDS011;59073;51.994;4.448;2023-02-26T19:40:44;1.82;;;1.68;;
71290;SDS011;59073;51.994;4.448;2023-02-26T19:43:14;1.93;;;1.76;;
71290;SDS011;59073;51.994;4.448;2023-02-26T19:45:40;1.84;;;1.66;;
71290;SDS011;59073;51.994;4.448;2023-02-26T19:48:13;2.13;;;1.90;;
71290;SDS011;59073;51.994;4.448;2023-02-26T19:50:39;2.51;;;2.25;;
71290;SDS011;59073;51.994;4.448;2023-02-26T19:53:07;2.27;;;2.07;;
71290;SDS011;59073;51.994;4.448;2023-02-26T19:55:38;2.05;;;1.86;;
71290;SDS011;59073;51.994;4.448;2023-02-26T19:58:17;2.22;;;2.05;;
71290;SDS011;59073;51.994;4.448;2023-02-26T20:00:54;1.69;;;1.57;;
71290;SDS011;59073;51.994;4.448;2023-02-26T20:03:21;1.70;;;1.57;;
71290;SDS011;59073;51.994;4.448;2023-02-26T20:05:47;1.63;;;1.51;;
71290;SDS011;59073;51.994;4.448;2023-02-26T20:08:14;1.86;;;1.69;;
71290;SDS011;59073;51.994;4.448;2023-02-26T20:10:39;1.86;;;1.68;;
71290;SDS011;59073;51.994;4.448;2023-02-26T20:13:05;2.16;;;1.96;;
71290;SDS011;59073;51.994;4.448;2023-02-26T20:15:33;1.94;;;1.77;;
71290;SDS011;59073;51.994;4.448;2023-02-26T20:17:58;1.99;;;1.83;;
71290;SDS011;59073;51.994;4.448;2023-02-26T20:20:24;1.85;;;1.72;;
71290;SDS011;59073;51.994;4.448;2023-02-26T20:22:49;2.11;;;1.95;;
71290;SDS011;59073;51.994;4.448;2023-02-26T20:25:15;2.03;;;1.88;;
71290;SDS011;59073;51.994;4.448;2023-02-26T20:27:41;1.97;;;1.83;;
71290;SDS011;59073;51.994;4.448;2023-02-26T20:30:10;1.88;;;1.77;;
71290;SDS011;59073;51.994;4.448;2023-02-26T20:32:35;2.35;;;2.21;;
71290;SDS011;59073;51.994;4.448;2023-02-26T20:35:03;2.33;;;2.15;;
71290;SDS011;59073;51.994;4.448;2023-02-26T20:37:41;2.59;;;2.41;;
71290;SDS011;59073;51.994;4.448;2023-02-26T20:40:11;2.76;;;2.60;;
71290;SDS011;59073;51.994;4.448;2023-02-26T20:42:39;2.72;;;2.57;;
71290;SDS011;59073;51.994;4.448;2023-02-26T20:45:08;2.59;;;2.47;;
71290;SDS011;59073;51.994;4.448;2023-02-26T20:47:42;2.83;;;2.70;;
71290;SDS011;59073;51.994;4.448;2023-02-26T20:50:17;2.94;;;2.81;;
71290;SDS011;59073;51.994;4.448;2023-02-26T20:52:43;3.02;;;2.91;;
71290;SDS011;59073;51.994;4.448;2023-02-26T20:55:24;3.15;;;3.04;;
71290;SDS011;59073;51.994;4.448;2023-02-26T20:58:03;3.29;;;3.19;;
71290;SDS011;59073;51.994;4.448;2023-02-26T21:03:42;3.04;;;2.91;;
71290;SDS011;59073;51.994;4.448;2023-02-26T21:06:13;3.03;;;2.93;;
71290;SDS011;59073;51.994;4.448;2023-02-26T21:08:44;3.26;;;3.16;;
71290;SDS011;59073;51.994;4.448;2023-02-26T21:11:19;3.14;;;3.05;;
71290;SDS011;59073;51.994;4.448;2023-02-26T21:13:45;3.20;;;3.12;;
71290;SDS011;59073;51.994;4.448;2023-02-26T21:16:21;2.81;;;2.73;;
71290;SDS011;59073;51.994;4.448;2023-02-26T21:19:17;2.64;;;2.56;;
71290;SDS011;59073;51.994;4.448;2023-02-26T21:21:53;2.34;;;2.29;;
71290;SDS011;59073;51.994;4.448;2023-02-26T21:24:56;2.44;;;2.35;;
71290;SDS011;59073;51.994;4.448;2023-02-26T21:30:03;2.53;;;2.50;;
71290;SDS011;59073;51.994;4.448;2023-02-26T21:32:49;2.58;;;2.55;;
71290;SDS011;59073;51.994;4.448;2023-02-26T21:35:21;2.97;;;2.92;;
71290;SDS011;59073;51.994;4.448;2023-02-26T21:37:46;2.98;;;2.91;;
71290;SDS011;59073;51.994;4.448;2023-02-26T21:40:18;2.62;;;2.53;;
71290;SDS011;59073;51.994;4.448;2023-02-26T21:42:43;2.50;;;2.37;;
71290;SDS011;59073;51.994;4.448;2023-02-26T21:45:09;2.30;;;2.16;;
71290;SDS011;59073;51.994;4.448;2023-02-26T21:47:38;2.29;;;2.17;;
71290;SDS011;59073;51.994;4.448;2023-02-26T21:50:04;2.26;;;2.14;;
71290;SDS011;59073;51.994;4.448;2023-02-26T21:52:33;2.25;;;2.16;;
71290;SDS011;59073;51.994;4.448;2023-02-26T21:55:12;2.03;;;1.92;;
71290;SDS011;59073;51.994;4.448;2023-02-26T21:57:46;2.29;;;2.16;;
71290;SDS011;59073;51.994;4.448;2023-02-26T22:03:27;2.07;;;1.89;;
71290;SDS011;59073;51.994;4.448;2023-02-26T22:05:52;2.08;;;1.90;;
71290;SDS011;59073;51.994;4.448;2023-02-26T22:08:26;2.06;;;1.88;;
71290;SDS011;59073;51.994;4.448;2023-02-26T22:10:53;2.24;;;2.07;;
71290;SDS011;59073;51.994;4.448;2023-02-26T22:13:19;1.94;;;1.81;;
71290;SDS011;59073;51.994;4.448;2023-02-26T22:15:56;2.07;;;1.93;;
71290;SDS011;59073;51.994;4.448;2023-02-26T22:18:27;2.24;;;2.07;;
71290;SDS011;59073;51.994;4.448;2023-02-26T22:20:52;2.06;;;1.91;;
71290;SDS011;59073;51.994;4.448;2023-02-26T22:23:20;2.26;;;2.10;;
71290;SDS011;59073;51.994;4.448;2023-02-26T22:26:04;1.89;;;1.75;;
71290;SDS011;59073;51.994;4.448;2023-02-26T22:28:36;2.14;;;2.00;;
71290;SDS011;59073;51.994;4.448;2023-02-26T22:31:12;2.31;;;2.14;;
71290;SDS011;59073;51.994;4.448;2023-02-26T22:33:38;2.13;;;1.97;;
71290;SDS011;59073;51.994;4.448;2023-02-26T22:36:04;1.67;;;1.54;;
71290;SDS011;59073;51.994;4.448;2023-02-26T22:38:29;1.72;;;1.63;;
71290;SDS011;59073;51.994;4.448;2023-02-26T22:40:57;1.75;;;1.66;;
71290;SDS011;59073;51.994;4.448;2023-02-26T22:43:23;1.86;;;1.77;;
71290;SDS011;59073;51.994;4.448;2023-02-26T22:46:06;2.02;;;1.91;;